Main page
METAR-TAF:

METAR-TAF

Airports :

Sligo Airport

Sligo, Ireland

latitude: 54-16-49N, longitude: 8-35-57W, elevation: 3 m

Current weather observation

The report was made 7 hours and 52 minutes ago, at 15:00 UTC
Wind 12 kt from the East/Southeast
Temperature 7°C
Humidity 93%
Pressure 997 hPa
Visibility: 9000 m
Few clouds at a height of 1500 ft
Broken clouds at a height of 2400 ft

METAR: EISG 211500Z 11012KT 9000 FEW015 BKN024 07/06 Q0997

Time: 22:52 (22:52 UTC)

Forecast

The report was made 2 hours and 52 minutes ago, at 20:00 UTC
Forecast valid from 21 at 21 UTC to 22 at 06 UTC
Wind 10 kt from the East
Visibility: 9000 m
Few clouds at a height of 1500 ft
Broken clouds at a height of 2500 ft
Temporary
from 21 at 21 UTC to 22 at 06 UTC
Visibility: 4000 m
Broken clouds at a height of 1000 ft
light rain, mist

TAF: EISG 212000Z 2121/2206 09010KT 9000 FEW015 BKN025 TEMPO 2121/2206 4000 -RA BR BKN010

Weather observations and forecasts of more than 4000 airports (METAR and TAF reports).

The available stations are represented by yellow and red dots on the map.

Hover mouse over dot to see the name of the station.

Then click to see weather observations and forecasts.

To change the map : click on the green buttons with a black cross to zoom in, on the green button with a dash to zoom out, or on the green arrows for adjacent maps.


METAR-TAF: